Tifton, Georgia
Current Conditions -  °F | °C
As of 6:30 AM on Friday 24 Oct 2014 (Local Time) from KTMA Reporting Station
Clear Clear  
Wind Chill: 49°   Ceiling: Unl
Heat Index: 49°   Visibility: 10mi
Dew Point: 48°   Wind: 0mph
Humidity: 97%   Direction: NA
Pressure: 30.04"   Gusts: NA
Location:  31.45°N, 83.51°W
Report Text: KTMA 241030Z AUTO 00000KT 10SM CLR 09/09 A3004 RMK AO2 T00930088
Loading
Personal Weather Stations






























Interactive Weather Map New forecast layout! Learn more

10-Day Weather Forecast

Advertisements
Track Severe Weather on mobile